sensor_id;sensor_type;location;lat;lon;timestamp;pressure;altitude;pressure_sealevel;temperature;humidity
46886;BME280;32622;48.202;11.326;2022-08-07T00:00:42;1024.70;;;12.73;44.91
46886;BME280;32622;48.202;11.326;2022-08-07T00:02:46;1024.45;;;13.65;42.84
46886;BME280;32622;48.202;11.326;2022-08-07T00:04:49;1024.41;;;13.85;41.95
46886;BME280;32622;48.202;11.326;2022-08-07T00:06:52;1024.64;;;12.85;44.43
46886;BME280;32622;48.202;11.326;2022-08-07T00:08:55;1024.44;;;13.76;42.51
46886;BME280;32622;48.202;11.326;2022-08-07T00:10:58;1024.13;;;15.23;40.16
46886;BME280;32622;48.202;11.326;2022-08-07T00:13:03;1024.22;;;14.95;39.60
46886;BME280;32622;48.202;11.326;2022-08-07T00:15:08;1025.16;;;11.06;47.04
46886;BME280;32622;48.202;11.326;2022-08-07T00:17:11;1024.86;;;12.41;46.22
46886;BME280;32622;48.202;11.326;2022-08-07T00:19:14;1024.82;;;12.54;46.03
46886;BME280;32622;48.202;11.326;2022-08-07T00:21:17;1024.66;;;13.22;44.23
46886;BME280;32622;48.202;11.326;2022-08-07T00:23:20;1024.94;;;11.84;46.33
46886;BME280;32622;48.202;11.326;2022-08-07T00:25:24;1024.45;;;13.77;42.72
46886;BME280;32622;48.202;11.326;2022-08-07T00:27:27;1024.80;;;12.47;44.99
46886;BME280;32622;48.202;11.326;2022-08-07T00:29:30;1024.61;;;13.31;43.25
46886;BME280;32622;48.202;11.326;2022-08-07T00:31:34;1024.37;;;14.12;41.73
46886;BME280;32622;48.202;11.326;2022-08-07T00:33:38;1024.72;;;12.67;45.62
46886;BME280;32622;48.202;11.326;2022-08-07T00:35:41;1024.71;;;12.43;46.20
46886;BME280;32622;48.202;11.326;2022-08-07T00:37:45;1024.70;;;12.40;44.87
46886;BME280;32622;48.202;11.326;2022-08-07T00:39:48;1024.42;;;13.39;43.43
46886;BME280;32622;48.202;11.326;2022-08-07T00:41:54;1024.46;;;13.12;43.79
46886;BME280;32622;48.202;11.326;2022-08-07T00:43:58;1024.61;;;12.60;45.11
46886;BME280;32622;48.202;11.326;2022-08-07T00:46:01;1024.37;;;13.51;42.84
46886;BME280;32622;48.202;11.326;2022-08-07T00:48:06;1024.41;;;13.44;42.05
46886;BME280;32622;48.202;11.326;2022-08-07T00:50:10;1024.12;;;14.74;40.31
46886;BME280;32622;48.202;11.326;2022-08-07T00:52:13;1024.10;;;14.58;40.25
46886;BME280;32622;48.202;11.326;2022-08-07T00:54:16;1024.13;;;14.42;39.51
46886;BME280;32622;48.202;11.326;2022-08-07T00:56:19;1024.13;;;14.18;40.32
46886;BME280;32622;48.202;11.326;2022-08-07T00:58:23;1024.28;;;13.60;40.98
46886;BME280;32622;48.202;11.326;2022-08-07T01:00:27;1024.03;;;14.72;38.61
46886;BME280;32622;48.202;11.326;2022-08-07T01:02:30;1024.05;;;14.67;37.91
46886;BME280;32622;48.202;11.326;2022-08-07T01:04:33;1023.79;;;15.83;36.35
46886;BME280;32622;48.202;11.326;2022-08-07T01:06:36;1023.89;;;15.42;36.67
46886;BME280;32622;48.202;11.326;2022-08-07T01:08:40;1023.80;;;15.99;36.14
46886;BME280;32622;48.202;11.326;2022-08-07T01:10:43;1024.37;;;13.32;39.64
46886;BME280;32622;48.202;11.326;2022-08-07T01:12:47;1024.38;;;13.34;41.09
46886;BME280;32622;48.202;11.326;2022-08-07T01:14:52;1024.54;;;12.49;42.23
46886;BME280;32622;48.202;11.326;2022-08-07T01:16:56;1024.34;;;13.23;41.93
46886;BME280;32622;48.202;11.326;2022-08-07T01:19:00;1024.11;;;13.86;40.68
46886;BME280;32622;48.202;11.326;2022-08-07T01:21:09;1024.12;;;13.94;40.59
46886;BME280;32622;48.202;11.326;2022-08-07T01:23:13;1024.06;;;14.26;40.06
46886;BME280;32622;48.202;11.326;2022-08-07T01:25:17;1024.42;;;12.79;41.79
46886;BME280;32622;48.202;11.326;2022-08-07T01:27:21;1024.05;;;13.97;40.79
46886;BME280;32622;48.202;11.326;2022-08-07T01:29:26;1024.12;;;13.53;40.71
46886;BME280;32622;48.202;11.326;2022-08-07T01:31:29;1024.50;;;12.12;43.60
46886;BME280;32622;48.202;11.326;2022-08-07T01:33:33;1023.93;;;14.41;40.62
46886;BME280;32622;48.202;11.326;2022-08-07T01:35:36;1024.46;;;12.27;43.09
46886;BME280;32622;48.202;11.326;2022-08-07T01:37:39;1024.42;;;12.45;43.11
46886;BME280;32622;48.202;11.326;2022-08-07T01:39:43;1023.96;;;14.13;40.19
46886;BME280;32622;48.202;11.326;2022-08-07T01:41:46;1024.36;;;12.70;42.57
46886;BME280;32622;48.202;11.326;2022-08-07T01:43:50;1024.37;;;12.64;42.18
46886;BME280;32622;48.202;11.326;2022-08-07T01:45:54;1024.06;;;13.87;40.59
46886;BME280;32622;48.202;11.326;2022-08-07T01:47:57;1023.97;;;14.28;39.61
46886;BME280;32622;48.202;11.326;2022-08-07T01:50:00;1024.09;;;13.91;40.27
46886;BME280;32622;48.202;11.326;2022-08-07T01:52:05;1024.25;;;13.20;41.16
46886;BME280;32622;48.202;11.326;2022-08-07T01:54:10;1023.89;;;14.67;39.19
46886;BME280;32622;48.202;11.326;2022-08-07T01:56:17;1024.41;;;12.46;43.02
46886;BME280;32622;48.202;11.326;2022-08-07T01:58:29;1024.42;;;12.24;43.34
46886;BME280;32622;48.202;11.326;2022-08-07T02:00:36;1024.26;;;12.98;42.23
46886;BME280;32622;48.202;11.326;2022-08-07T02:02:45;1024.59;;;11.16;44.73
46886;BME280;32622;48.202;11.326;2022-08-07T02:04:52;1024.39;;;12.10;43.06
46886;BME280;32622;48.202;11.326;2022-08-07T02:06:58;1024.90;;;10.02;48.50
46886;BME280;32622;48.202;11.326;2022-08-07T02:09:06;1024.67;;;10.71;46.54
46886;BME280;32622;48.202;11.326;2022-08-07T02:11:11;1024.38;;;11.90;44.54
46886;BME280;32622;48.202;11.326;2022-08-07T02:13:15;1024.31;;;12.16;43.80
46886;BME280;32622;48.202;11.326;2022-08-07T02:15:22;1024.64;;;10.69;47.11
46886;BME280;32622;48.202;11.326;2022-08-07T02:17:26;1024.06;;;13.25;42.68
46886;BME280;32622;48.202;11.326;2022-08-07T02:19:30;1023.92;;;13.52;41.06
46886;BME280;32622;48.202;11.326;2022-08-07T02:21:35;1023.94;;;13.29;40.64
46886;BME280;32622;48.202;11.326;2022-08-07T02:23:39;1024.08;;;12.70;41.39
46886;BME280;32622;48.202;11.326;2022-08-07T02:25:43;1024.12;;;12.49;42.39
46886;BME280;32622;48.202;11.326;2022-08-07T02:27:48;1024.51;;;10.70;45.88
46886;BME280;32622;48.202;11.326;2022-08-07T02:29:53;1024.24;;;11.79;44.46
46886;BME280;32622;48.202;11.326;2022-08-07T02:31:58;1023.96;;;12.96;41.69
46886;BME280;32622;48.202;11.326;2022-08-07T02:34:03;1023.85;;;13.14;41.17
46886;BME280;32622;48.202;11.326;2022-08-07T02:36:08;1024.24;;;11.73;43.79
46886;BME280;32622;48.202;11.326;2022-08-07T02:38:13;1024.00;;;12.66;41.79
46886;BME280;32622;48.202;11.326;2022-08-07T02:40:17;1024.80;;;9.36;49.21
46886;BME280;32622;48.202;11.326;2022-08-07T02:42:21;1024.19;;;11.66;45.36
46886;BME280;32622;48.202;11.326;2022-08-07T02:44:25;1024.15;;;11.98;44.04
46886;BME280;32622;48.202;11.326;2022-08-07T02:46:30;1024.24;;;11.51;45.09
46886;BME280;32622;48.202;11.326;2022-08-07T02:48:33;1024.28;;;11.49;45.45
46886;BME280;32622;48.202;11.326;2022-08-07T02:50:40;1024.19;;;11.73;45.22
46886;BME280;32622;48.202;11.326;2022-08-07T02:52:50;1024.67;;;9.87;48.34
46886;BME280;32622;48.202;11.326;2022-08-07T02:54:57;1024.14;;;12.16;43.88
46886;BME280;32622;48.202;11.326;2022-08-07T02:57:02;1024.32;;;11.43;44.03
46886;BME280;32622;48.202;11.326;2022-08-07T02:59:10;1024.14;;;12.31;42.60
46886;BME280;32622;48.202;11.326;2022-08-07T03:01:13;1024.59;;;10.43;46.55
46886;BME280;32622;48.202;11.326;2022-08-07T03:03:19;1024.29;;;11.59;45.53
46886;BME280;32622;48.202;11.326;2022-08-07T03:05:24;1024.45;;;11.07;45.62
46886;BME280;32622;48.202;11.326;2022-08-07T03:07:28;1024.83;;;9.52;47.38
46886;BME280;32622;48.202;11.326;2022-08-07T03:09:33;1024.38;;;11.39;45.85
46886;BME280;32622;48.202;11.326;2022-08-07T03:11:36;1024.66;;;10.23;46.31
46886;BME280;32622;48.202;11.326;2022-08-07T03:13:41;1024.40;;;11.40;45.71
46886;BME280;32622;48.202;11.326;2022-08-07T03:15:45;1024.60;;;10.53;46.88
46886;BME280;32622;48.202;11.326;2022-08-07T03:17:49;1024.41;;;11.35;45.59
46886;BME280;32622;48.202;11.326;2022-08-07T03:19:55;1024.61;;;10.62;46.67
46886;BME280;32622;48.202;11.326;2022-08-07T03:21:58;1024.32;;;11.90;43.68
46886;BME280;32622;48.202;11.326;2022-08-07T03:24:04;1024.38;;;11.47;43.86
46886;BME280;32622;48.202;11.326;2022-08-07T03:26:08;1024.84;;;9.68;46.66
46886;BME280;32622;48.202;11.326;2022-08-07T03:28:15;1024.64;;;10.59;45.12
46886;BME280;32622;48.202;11.326;2022-08-07T03:30:18;1024.95;;;9.33;48.19
46886;BME280;32622;48.202;11.326;2022-08-07T03:32:24;1025.03;;;9.11;49.23
46886;BME280;32622;48.202;11.326;2022-08-07T03:34:30;1024.64;;;10.62;46.28
46886;BME280;32622;48.202;11.326;2022-08-07T03:36:34;1024.67;;;10.54;46.19
46886;BME280;32622;48.202;11.326;2022-08-07T03:38:39;1024.56;;;10.84;44.56
46886;BME280;32622;48.202;11.326;2022-08-07T03:40:43;1024.82;;;9.83;47.20
46886;BME280;32622;48.202;11.326;2022-08-07T03:42:47;1024.71;;;10.31;44.92
46886;BME280;32622;48.202;11.326;2022-08-07T03:44:52;1024.45;;;11.33;42.89
46886;BME280;32622;48.202;11.326;2022-08-07T03:46:56;1024.56;;;10.72;42.98
46886;BME280;32622;48.202;11.326;2022-08-07T03:49:00;1024.43;;;11.20;42.20
46886;BME280;32622;48.202;11.326;2022-08-07T03:51:07;1024.38;;;11.50;42.36
46886;BME280;32622;48.202;11.326;2022-08-07T03:53:12;1024.58;;;10.28;44.09
46886;BME280;32622;48.202;11.326;2022-08-07T03:55:16;1024.56;;;10.31;45.33
46886;BME280;32622;48.202;11.326;2022-08-07T03:57:19;1024.39;;;10.76;44.26
46886;BME280;32622;48.202;11.326;2022-08-07T03:59:25;1024.50;;;10.45;44.95
46886;BME280;32622;48.202;11.326;2022-08-07T04:01:30;1024.40;;;10.83;43.82
46886;BME280;32622;48.202;11.326;2022-08-07T04:03:33;1024.43;;;10.70;44.23
46886;BME280;32622;48.202;11.326;2022-08-07T04:05:37;1024.13;;;12.18;41.55
46886;BME280;32622;48.202;11.326;2022-08-07T04:07:44;1024.15;;;12.17;41.58
46886;BME280;32622;48.202;11.326;2022-08-07T04:09:48;1024.51;;;10.51;42.64
46886;BME280;32622;48.202;11.326;2022-08-07T04:11:53;1024.12;;;12.16;40.41
46886;BME280;32622;48.202;11.326;2022-08-07T04:13:57;1024.50;;;10.49;43.05
46886;BME280;32622;48.202;11.326;2022-08-07T04:16:01;1024.70;;;9.71;44.42
46886;BME280;32622;48.202;11.326;2022-08-07T04:18:06;1024.27;;;11.57;41.27
46886;BME280;32622;48.202;11.326;2022-08-07T04:20:10;1024.10;;;12.17;39.79
46886;BME280;32622;48.202;11.326;2022-08-07T04:22:15;1024.16;;;11.95;40.60
46886;BME280;32622;48.202;11.326;2022-08-07T04:24:19;1024.37;;;10.83;41.97
46886;BME280;32622;48.202;11.326;2022-08-07T04:26:24;1023.93;;;12.56;39.88
46886;BME280;32622;48.202;11.326;2022-08-07T04:28:27;1024.18;;;11.79;40.96
46886;BME280;32622;48.202;11.326;2022-08-07T04:30:30;1024.02;;;12.39;39.66
46886;BME280;32622;48.202;11.326;2022-08-07T04:32:34;1024.39;;;11.17;42.03
46886;BME280;32622;48.202;11.326;2022-08-07T04:34:39;1024.62;;;10.25;42.79
46886;BME280;32622;48.202;11.326;2022-08-07T04:36:45;1024.42;;;11.04;42.55
46886;BME280;32622;48.202;11.326;2022-08-07T04:38:48;1024.31;;;11.40;42.15
46886;BME280;32622;48.202;11.326;2022-08-07T04:40:52;1024.41;;;11.03;42.79
46886;BME280;32622;48.202;11.326;2022-08-07T04:42:55;1024.78;;;9.36;44.52
46886;BME280;32622;48.202;11.326;2022-08-07T04:45:01;1024.70;;;9.79;44.39
46886;BME280;32622;48.202;11.326;2022-08-07T04:47:09;1024.60;;;10.16;44.46
46886;BME280;32622;48.202;11.326;2022-08-07T04:49:18;1024.73;;;9.70;45.69
46886;BME280;32622;48.202;11.326;2022-08-07T04:51:34;1024.71;;;9.53;45.70
46886;BME280;32622;48.202;11.326;2022-08-07T04:53:48;1024.53;;;10.24;44.52
46886;BME280;32622;48.202;11.326;2022-08-07T04:55:56;1024.35;;;11.20;42.09
46886;BME280;32622;48.202;11.326;2022-08-07T04:58:12;1024.50;;;10.34;43.32
46886;BME280;32622;48.202;11.326;2022-08-07T05:00:27;1024.12;;;12.08;40.62
46886;BME280;32622;48.202;11.326;2022-08-07T05:02:43;1024.69;;;9.34;43.44
46886;BME280;32622;48.202;11.326;2022-08-07T05:04:56;1024.24;;;11.42;40.32
46886;BME280;32622;48.202;11.326;2022-08-07T05:07:05;1023.98;;;12.70;38.87
46886;BME280;32622;48.202;11.326;2022-08-07T05:09:15;1024.52;;;10.60;41.03
46886;BME280;32622;48.202;11.326;2022-08-07T05:11:26;1024.47;;;10.74;40.41
46886;BME280;32622;48.202;11.326;2022-08-07T05:13:36;1024.36;;;11.21;39.64
46886;BME280;32622;48.202;11.326;2022-08-07T05:15:42;1024.61;;;9.93;41.32
46886;BME280;32622;48.202;11.326;2022-08-07T05:17:49;1024.56;;;10.17;41.49
46886;BME280;32622;48.202;11.326;2022-08-07T05:19:54;1024.45;;;10.51;41.12
46886;BME280;32622;48.202;11.326;2022-08-07T05:21:59;1024.39;;;11.02;39.99
46886;BME280;32622;48.202;11.326;2022-08-07T05:24:08;1024.34;;;11.42;39.21
46886;BME280;32622;48.202;11.326;2022-08-07T05:26:15;1024.51;;;10.72;40.72
46886;BME280;32622;48.202;11.326;2022-08-07T05:28:21;1024.84;;;9.19;43.75
46886;BME280;32622;48.202;11.326;2022-08-07T05:30:25;1024.76;;;9.59;42.29
46886;BME280;32622;48.202;11.326;2022-08-07T05:32:30;1024.76;;;9.62;42.25
46886;BME280;32622;48.202;11.326;2022-08-07T05:34:36;1024.55;;;10.40;41.07
46886;BME280;32622;48.202;11.326;2022-08-07T05:36:42;1024.46;;;10.83;39.57
46886;BME280;32622;48.202;11.326;2022-08-07T05:38:47;1024.61;;;10.61;39.32
46886;BME280;32622;48.202;11.326;2022-08-07T05:40:51;1024.56;;;10.59;39.56
46886;BME280;32622;48.202;11.326;2022-08-07T05:42:55;1024.34;;;11.45;38.26
46886;BME280;32622;48.202;11.326;2022-08-07T05:45:00;1024.49;;;10.90;37.68
46886;BME280;32622;48.202;11.326;2022-08-07T05:47:04;1024.39;;;11.27;36.26
46886;BME280;32622;48.202;11.326;2022-08-07T05:49:09;1024.34;;;11.41;36.58
46886;BME280;32622;48.202;11.326;2022-08-07T05:51:13;1024.44;;;11.06;37.35
46886;BME280;32622;48.202;11.326;2022-08-07T05:53:17;1025.08;;;8.61;41.23
46886;BME280;32622;48.202;11.326;2022-08-07T05:55:20;1024.73;;;9.94;39.37
46886;BME280;32622;48.202;11.326;2022-08-07T05:57:24;1024.47;;;10.98;37.60
46886;BME280;32622;48.202;11.326;2022-08-07T05:59:29;1024.32;;;11.61;37.13
46886;BME280;32622;48.202;11.326;2022-08-07T06:01:34;1024.47;;;10.90;37.92
46886;BME280;32622;48.202;11.326;2022-08-07T06:03:40;1024.45;;;11.24;36.44
46886;BME280;32622;48.202;11.326;2022-08-07T06:05:46;1024.48;;;11.12;36.76
46886;BME280;32622;48.202;11.326;2022-08-07T06:07:50;1024.42;;;11.49;36.12
46886;BME280;32622;48.202;11.326;2022-08-07T06:09:53;1024.40;;;11.68;35.86
46886;BME280;32622;48.202;11.326;2022-08-07T06:11:57;1024.43;;;11.57;35.88
46886;BME280;32622;48.202;11.326;2022-08-07T06:14:01;1024.25;;;12.32;34.15
46886;BME280;32622;48.202;11.326;2022-08-07T06:16:07;1024.16;;;12.54;33.82
46886;BME280;32622;48.202;11.326;2022-08-07T06:18:11;1024.18;;;12.56;33.23
46886;BME280;32622;48.202;11.326;2022-08-07T06:20:14;1024.63;;;10.63;36.70
46886;BME280;32622;48.202;11.326;2022-08-07T06:22:19;1024.88;;;9.77;38.19
46886;BME280;32622;48.202;11.326;2022-08-07T06:24:24;1024.43;;;11.47;36.66
46886;BME280;32622;48.202;11.326;2022-08-07T06:33:21;1023.89;;;14.04;35.41
46886;BME280;32622;48.202;11.326;2022-08-07T06:35:34;1024.30;;;12.18;35.01
46886;BME280;32622;48.202;11.326;2022-08-07T06:37:37;1024.54;;;11.18;35.46
46886;BME280;32622;48.202;11.326;2022-08-07T06:39:40;1024.62;;;10.83;36.13
46886;BME280;32622;48.202;11.326;2022-08-07T06:41:47;1024.36;;;12.06;34.34
46886;BME280;32622;48.202;11.326;2022-08-07T06:43:52;1024.43;;;11.91;34.60
46886;BME280;32622;48.202;11.326;2022-08-07T06:45:56;1024.37;;;12.11;34.83
46886;BME280;32622;48.202;11.326;2022-08-07T06:48:00;1024.66;;;10.41;36.55
46886;BME280;32622;48.202;11.326;2022-08-07T06:50:04;1024.31;;;12.21;35.01
46886;BME280;32622;48.202;11.326;2022-08-07T06:52:09;1024.39;;;11.90;34.70
46886;BME280;32622;48.202;11.326;2022-08-07T06:54:14;1024.52;;;11.39;36.01
46886;BME280;32622;48.202;11.326;2022-08-07T06:56:19;1024.43;;;11.93;35.13
46886;BME280;32622;48.202;11.326;2022-08-07T06:58:23;1024.42;;;12.01;34.18
46886;BME280;32622;48.202;11.326;2022-08-07T07:00:31;1024.44;;;11.98;34.54
46886;BME280;32622;48.202;11.326;2022-08-07T07:02:36;1024.12;;;12.96;32.60
46886;BME280;32622;48.202;11.326;2022-08-07T07:04:41;1024.18;;;12.65;33.37
46886;BME280;32622;48.202;11.326;2022-08-07T07:06:45;1024.44;;;11.89;34.06
46886;BME280;32622;48.202;11.326;2022-08-07T07:08:48;1024.05;;;13.07;33.39
46886;BME280;32622;48.202;11.326;2022-08-07T07:10:52;1024.46;;;11.51;34.87
46886;BME280;32622;48.202;11.326;2022-08-07T07:12:59;1024.60;;;10.81;36.14
46886;BME280;32622;48.202;11.326;2022-08-07T07:15:07;1024.07;;;13.06;33.52
46886;BME280;32622;48.202;11.326;2022-08-07T07:17:18;1024.05;;;13.30;33.25
46886;BME280;32622;48.202;11.326;2022-08-07T07:19:26;1024.54;;;11.35;35.79
46886;BME280;32622;48.202;11.326;2022-08-07T07:21:35;1024.40;;;11.88;35.21
46886;BME280;32622;48.202;11.326;2022-08-07T07:23:40;1023.93;;;13.53;32.44
46886;BME280;32622;48.202;11.326;2022-08-07T07:25:43;1024.02;;;13.25;32.42
46886;BME280;32622;48.202;11.326;2022-08-07T07:27:50;1023.96;;;13.34;32.87
46886;BME280;32622;48.202;11.326;2022-08-07T07:29:58;1023.87;;;13.74;31.87
46886;BME280;32622;48.202;11.326;2022-08-07T07:32:06;1024.04;;;12.87;32.68
46886;BME280;32622;48.202;11.326;2022-08-07T07:34:13;1024.25;;;12.18;33.92
46886;BME280;32622;48.202;11.326;2022-08-07T07:36:19;1024.44;;;11.00;36.17
46886;BME280;32622;48.202;11.326;2022-08-07T07:38:23;1024.11;;;12.51;35.39
46886;BME280;32622;48.202;11.326;2022-08-07T07:40:27;1024.17;;;12.09;35.04
46886;BME280;32622;48.202;11.326;2022-08-07T07:42:32;1023.86;;;13.56;33.17
46886;BME280;32622;48.202;11.326;2022-08-07T07:44:40;1024.43;;;11.04;36.65
46886;BME280;32622;48.202;11.326;2022-08-07T07:46:44;1024.74;;;9.60;38.92
46886;BME280;32622;48.202;11.326;2022-08-07T07:48:51;1024.22;;;11.88;35.96
46886;BME280;32622;48.202;11.326;2022-08-07T07:53:03;1023.67;;;14.27;36.76
46886;BME280;32622;48.202;11.326;2022-08-07T07:57:27;1023.48;;;14.92;37.59
46886;BME280;32622;48.202;11.326;2022-08-07T07:59:31;1024.33;;;10.96;38.34
46886;BME280;32622;48.202;11.326;2022-08-07T08:01:39;1024.08;;;12.04;36.36
46886;BME280;32622;48.202;11.326;2022-08-07T08:03:44;1024.12;;;12.14;35.55
46886;BME280;32622;48.202;11.326;2022-08-07T08:05:48;1024.23;;;11.29;36.92
46886;BME280;32622;48.202;11.326;2022-08-07T08:07:51;1024.21;;;11.19;37.47
46886;BME280;32622;48.202;11.326;2022-08-07T08:09:55;1024.46;;;10.32;38.17
46886;BME280;32622;48.202;11.326;2022-08-07T08:11:59;1024.27;;;10.92;37.68
46886;BME280;32622;48.202;11.326;2022-08-07T08:14:02;1024.20;;;11.45;36.30
46886;BME280;32622;48.202;11.326;2022-08-07T08:16:07;1024.12;;;12.01;35.08
46886;BME280;32622;48.202;11.326;2022-08-07T08:18:10;1024.16;;;11.40;36.93
46886;BME280;32622;48.202;11.326;2022-08-07T08:20:14;1024.17;;;11.38;35.84
46886;BME280;32622;48.202;11.326;2022-08-07T08:22:19;1024.23;;;11.04;36.19
46886;BME280;32622;48.202;11.326;2022-08-07T08:24:23;1024.33;;;10.46;37.92
46886;BME280;32622;48.202;11.326;2022-08-07T08:26:28;1024.05;;;11.71;35.29
46886;BME280;32622;48.202;11.326;2022-08-07T08:28:33;1024.20;;;11.21;36.93
46886;BME280;32622;48.202;11.326;2022-08-07T08:30:38;1024.06;;;11.86;36.05
46886;BME280;32622;48.202;11.326;2022-08-07T08:32:45;1023.93;;;12.50;34.35
46886;BME280;32622;48.202;11.326;2022-08-07T08:34:53;1024.22;;;11.11;35.95
46886;BME280;32622;48.202;11.326;2022-08-07T08:36:58;1023.84;;;12.75;34.74
46886;BME280;32622;48.202;11.326;2022-08-07T08:39:03;1023.76;;;13.23;33.77
46886;BME280;32622;48.202;11.326;2022-08-07T08:41:16;1023.78;;;12.91;33.55
46886;BME280;32622;48.202;11.326;2022-08-07T08:43:26;1023.59;;;13.75;32.68
46886;BME280;32622;48.202;11.326;2022-08-07T08:45:37;1023.70;;;13.27;32.04
46886;BME280;32622;48.202;11.326;2022-08-07T08:47:51;1024.07;;;11.81;33.66
46886;BME280;32622;48.202;11.326;2022-08-07T08:50:03;1023.80;;;12.96;32.78
46886;BME280;32622;48.202;11.326;2022-08-07T08:52:17;1023.49;;;14.30;31.17
46886;BME280;32622;48.202;11.326;2022-08-07T08:54:25;1023.82;;;12.92;32.20
46886;BME280;32622;48.202;11.326;2022-08-07T08:56:34;1023.92;;;12.61;32.20
46886;BME280;32622;48.202;11.326;2022-08-07T08:58:44;1024.03;;;12.20;33.03
46886;BME280;32622;48.202;11.326;2022-08-07T09:00:53;1023.80;;;12.98;31.54
46886;BME280;32622;48.202;11.326;2022-08-07T09:03:00;1024.22;;;11.67;33.20
46886;BME280;32622;48.202;11.326;2022-08-07T09:05:15;1023.97;;;12.60;32.54
46886;BME280;32622;48.202;11.326;2022-08-07T09:07:28;1023.94;;;12.75;32.73
46886;BME280;32622;48.202;11.326;2022-08-07T09:09:43;1023.69;;;13.72;32.02
46886;BME280;32622;48.202;11.326;2022-08-07T09:11:54;1023.61;;;13.89;31.60
46886;BME280;32622;48.202;11.326;2022-08-07T09:14:10;1023.48;;;14.65;30.58
46886;BME280;32622;48.202;11.326;2022-08-07T09:16:20;1023.35;;;15.02;28.53
46886;BME280;32622;48.202;11.326;2022-08-07T09:18:39;1023.61;;;13.99;31.27
46886;BME280;32622;48.202;11.326;2022-08-07T09:21:14;1023.32;;;15.11;30.42
46886;BME280;32622;48.202;11.326;2022-08-07T09:23:30;1023.66;;;13.56;31.13
46886;BME280;32622;48.202;11.326;2022-08-07T09:25:41;1023.60;;;13.93;29.96
46886;BME280;32622;48.202;11.326;2022-08-07T09:27:56;1023.74;;;13.13;30.33
46886;BME280;32622;48.202;11.326;2022-08-07T09:30:05;1023.56;;;14.19;29.71
46886;BME280;32622;48.202;11.326;2022-08-07T09:32:16;1024.01;;;12.31;32.50
46886;BME280;32622;48.202;11.326;2022-08-07T09:34:30;1023.67;;;14.07;29.97
46886;BME280;32622;48.202;11.326;2022-08-07T09:36:42;1024.19;;;11.71;33.52
46886;BME280;32622;48.202;11.326;2022-08-07T09:38:58;1023.51;;;13.80;30.91
46886;BME280;32622;48.202;11.326;2022-08-07T09:41:21;1023.67;;;13.47;31.92
46886;BME280;32622;48.202;11.326;2022-08-07T09:43:40;1023.25;;;14.94;30.29
46886;BME280;32622;48.202;11.326;2022-08-07T09:46:00;1023.24;;;14.77;29.42
46886;BME280;32622;48.202;11.326;2022-08-07T09:48:16;1023.33;;;14.45;30.04
46886;BME280;32622;48.202;11.326;2022-08-07T09:50:29;1023.40;;;14.22;30.54
46886;BME280;32622;48.202;11.326;2022-08-07T09:52:43;1023.52;;;13.47;31.19
46886;BME280;32622;48.202;11.326;2022-08-07T09:54:54;1023.24;;;14.50;30.79
46886;BME280;32622;48.202;11.326;2022-08-07T10:00:04;1023.54;;;13.15;31.40
46886;BME280;32622;48.202;11.326;2022-08-07T10:02:23;1023.52;;;13.19;31.05
46886;BME280;32622;48.202;11.326;2022-08-07T10:04:54;1023.59;;;13.00;32.30
46886;BME280;32622;48.202;11.326;2022-08-07T10:07:23;1023.61;;;12.58;32.10
46886;BME280;32622;48.202;11.326;2022-08-07T10:12:11;1023.63;;;12.53;31.99
46886;BME280;32622;48.202;11.326;2022-08-07T10:14:27;1023.44;;;13.34;31.45
46886;BME280;32622;48.202;11.326;2022-08-07T10:16:44;1023.57;;;12.48;31.58
46886;BME280;32622;48.202;11.326;2022-08-07T10:19:00;1023.64;;;12.45;31.95
46886;BME280;32622;48.202;11.326;2022-08-07T10:21:19;1023.47;;;13.01;31.94
46886;BME280;32622;48.202;11.326;2022-08-07T10:26:26;1023.44;;;12.84;31.14
46886;BME280;32622;48.202;11.326;2022-08-07T10:28:53;1023.48;;;12.64;32.05
46886;BME280;32622;48.202;11.326;2022-08-07T10:31:12;1023.31;;;13.05;32.09
46886;BME280;32622;48.202;11.326;2022-08-07T10:33:37;1023.33;;;12.91;31.30
46886;BME280;32622;48.202;11.326;2022-08-07T10:36:01;1023.01;;;14.27;29.44
46886;BME280;32622;48.202;11.326;2022-08-07T10:38:23;1023.05;;;14.34;28.23
46886;BME280;32622;48.202;11.326;2022-08-07T10:40:43;1023.20;;;13.46;30.60
46886;BME280;32622;48.202;11.326;2022-08-07T10:42:59;1023.17;;;13.58;30.46
46886;BME280;32622;48.202;11.326;2022-08-07T10:45:14;1023.03;;;14.04;29.84
46886;BME280;32622;48.202;11.326;2022-08-07T10:47:28;1023.65;;;11.46;32.56
46886;BME280;32622;48.202;11.326;2022-08-07T10:49:46;1023.21;;;13.05;32.11
46886;BME280;32622;48.202;11.326;2022-08-07T10:51:56;1023.06;;;14.00;30.34
46886;BME280;32622;48.202;11.326;2022-08-07T10:54:10;1022.69;;;15.39;29.32
46886;BME280;32622;48.202;11.326;2022-08-07T10:56:24;1022.97;;;13.98;31.12
46886;BME280;32622;48.202;11.326;2022-08-07T10:58:58;1022.83;;;14.79;29.60
46886;BME280;32622;48.202;11.326;2022-08-07T11:01:27;1022.91;;;14.45;29.61
46886;BME280;32622;48.202;11.326;2022-08-07T11:03:40;1023.00;;;14.29;28.94
46886;BME280;32622;48.202;11.326;2022-08-07T11:05:52;1023.19;;;13.56;30.43
46886;BME280;32622;48.202;11.326;2022-08-07T11:08:04;1022.79;;;14.79;28.79
46886;BME280;32622;48.202;11.326;2022-08-07T11:10:18;1022.58;;;15.62;27.38
46886;BME280;32622;48.202;11.326;2022-08-07T11:12:27;1022.75;;;14.73;27.89
46886;BME280;32622;48.202;11.326;2022-08-07T11:14:38;1022.57;;;15.59;27.29
46886;BME280;32622;48.202;11.326;2022-08-07T11:16:47;1022.48;;;15.79;27.46
46886;BME280;32622;48.202;11.326;2022-08-07T11:18:57;1022.68;;;14.73;27.82
46886;BME280;32622;48.202;11.326;2022-08-07T11:21:10;1022.63;;;14.89;28.87
46886;BME280;32622;48.202;11.326;2022-08-07T11:23:21;1022.36;;;15.98;26.93
46886;BME280;32622;48.202;11.326;2022-08-07T11:25:36;1022.77;;;14.18;28.21
46886;BME280;32622;48.202;11.326;2022-08-07T11:27:51;1022.54;;;14.89;28.75
46886;BME280;32622;48.202;11.326;2022-08-07T11:30:01;1022.75;;;14.43;29.34
46886;BME280;32622;48.202;11.326;2022-08-07T11:32:14;1022.79;;;14.01;30.35
46886;BME280;32622;48.202;11.326;2022-08-07T11:34:23;1022.54;;;14.71;29.62